Cibolo — WDI7436 — position and weather

sailwx.info

Track history (hours):
 
Tides and Currents Weather Stations Pressure Air Temp Water Temp Dewpoint Dewpoint Depression Visibility Wind Speed Wind Dir Waves Ship Positions

Cibolo

Owner: Kirby Inland Marine LP, Houston, TX. More information available from US FCC via Universal Licensing System and Coast Guard Vessel Documentation Center.

Last reported at 2017-Dec-08 21:46 UTC. Time now 2017-Dec-12 19:52 UTC.
Position N 30°03' W 093°43'.

Length 213 m; draft 3 m.

Type: . MMSI: 367728710.

Date/timePositionNaut miles runAvg speedWind from/ knotsBaromVisibWave heightAir tempDewpointWater temp
2017-Dec-08 21:46N 30°03' W 093°43'1 5.2
2017-Dec-08 21:30N 30°04' W 093°42'3 5.9
2017-Dec-08 21:00N 30°04' W 093°38'3 5.4
2017-Dec-08 20:30N 30°04' W 093°35'2 5.1
2017-Dec-08 20:00N 30°04' W 093°32'3 5.3
2017-Dec-08 19:30N 30°04' W 093°29'3 5.3
2017-Dec-08 19:00N 30°04' W 093°26'3 5.3
2017-Dec-08 18:30N 30°04' W 093°23'6 1.0
2017-Dec-08 12:30N 30°04' W 093°16'0 0.0
2017-Dec-08 10:38N 30°04' W 093°16'0 0.0
2017-Dec-08 10:30N 30°04' W 093°16'0 0.0
2017-Dec-08 10:00N 30°04' W 093°16'0 0.0
2017-Dec-08 09:30N 30°04' W 093°16'0 0.0
2017-Dec-08 09:00N 30°04' W 093°16'0 0.0
2017-Dec-08 08:30N 30°04' W 093°16'0 0.0
2017-Dec-08 08:00N 30°04' W 093°16'0 0.0
2017-Dec-08 07:30N 30°04' W 093°16'0 0.0
2017-Dec-08 07:00N 30°04' W 093°16'0 0.0
2017-Dec-08 06:30N 30°04' W 093°16'0 0.0
2017-Dec-08 06:00N 30°04' W 093°16'0 0.0
2017-Dec-08 05:30N 30°04' W 093°16'0 0.1
2017-Dec-08 05:00N 30°04' W 093°16'0 0.0
2017-Dec-08 04:30N 30°04' W 093°16'0 0.0
2017-Dec-08 04:00N 30°04' W 093°16'0 0.0
2017-Dec-08 03:30N 30°04' W 093°16'0 0.0
2017-Dec-08 03:00N 30°04' W 093°16'0 0.0
2017-Dec-08 02:30N 30°04' W 093°16'0 0.0
2017-Dec-08 02:00N 30°04' W 093°16'0 0.1
2017-Dec-08 01:30N 30°04' W 093°16'0 0.0
2017-Dec-08 01:00N 30°04' W 093°16'0 0.0
2017-Dec-08 00:30N 30°04' W 093°16'0 0.0
2017-Dec-08 00:00N 30°04' W 093°16'0 0.0
2017-Dec-07 23:30N 30°04' W 093°16'0 0.0
2017-Dec-07 23:00N 30°04' W 093°16'0 0.0
2017-Dec-07 22:30N 30°04' W 093°16'0 0.0
2017-Dec-07 22:00N 30°04' W 093°16'0 0.0
2017-Dec-07 21:30N 30°04' W 093°16'0 0.0
2017-Dec-07 21:00N 30°04' W 093°16'0 0.0
2017-Dec-07 20:30N 30°04' W 093°16'0 0.0
2017-Dec-07 20:00N 30°04' W 093°16'0 0.0
2017-Dec-07 19:30N 30°04' W 093°16'1 1.6
2017-Dec-07 19:00N 30°03' W 093°16'0 0.0
2017-Dec-07 18:30N 30°03' W 093°16'0 0.0
2017-Dec-07 18:00N 30°03' W 093°16'1 1.8
2017-Dec-07 17:30N 30°03' W 093°16'0 0.1
2017-Dec-07 17:00N 30°02' W 093°16'0 0.0
2017-Dec-07 16:30N 30°02' W 093°16'0 0.0
2017-Dec-07 16:00N 30°02' W 093°16'0 0.0
2017-Dec-07 15:30N 30°02' W 093°16'0 0.0
2017-Dec-07 15:00N 30°02' W 093°16'0 0.0
2017-Dec-07 14:30N 30°02' W 093°16'0 0.0
2017-Dec-07 14:00N 30°02' W 093°16'0 0.0
2017-Dec-07 13:30N 30°02' W 093°16'1 2.9
2017-Dec-07 13:00N 30°02' W 093°14'2 4.4
2017-Dec-07 12:30N 29°60' W 093°13'0 0.3
2017-Dec-07 12:00N 29°60' W 093°13'0 0.0
2017-Dec-07 11:30N 29°60' W 093°13'0 0.0
2017-Dec-07 11:00N 29°60' W 093°13'0 0.0
2017-Dec-07 10:30N 29°60' W 093°13'0 0.8
2017-Dec-07 10:00N 29°59' W 093°13'2 4.9
2017-Dec-07 09:30N 29°57' W 093°11'3 5.2
2017-Dec-07 09:00N 29°56' W 093°08'38 5.0
2017-Dec-07 01:31N 29°53' W 092°25'1 5.7
2017-Dec-07 01:22N 29°53' W 092°24'3 5.4
2017-Dec-07 00:52N 29°51' W 092°22'2 4.6
2017-Dec-07 00:30N 29°51' W 092°20'0 0.0
2017-Dec-07 00:00N 29°51' W 092°20'1 1.1
2017-Dec-06 23:30N 29°50' W 092°19'2 4.9
2017-Dec-06 23:00N 29°49' W 092°17'3 5.2
2017-Dec-06 22:30N 29°48' W 092°14'3 5.2
2017-Dec-06 22:00N 29°47' W 092°12'1 1.5
2017-Dec-06 21:30N 29°47' W 092°11'0 0.0
2017-Dec-06 21:00N 29°47' W 092°11'  
2017-Dec-03 15:42N 31°57' W 091°12'5 6.5
2017-Dec-03 14:55N 31°59' W 091°06'3 7.1
2017-Dec-03 14:30N 32°01' W 091°04'5 6.7
2017-Dec-03 13:45N 32°06' W 091°06'2 6.5
2017-Dec-03 13:30N 32°08' W 091°06'4 7.3
2017-Dec-03 12:58N 32°07' W 091°02'3 7.3
2017-Dec-03 12:30N 32°10' W 091°00'4 7.8
2017-Dec-03 12:00N 32°14' W 090°59'4 7.5
2017-Dec-03 11:30N 32°17' W 090°57'2 3.3
2017-Dec-03 11:00N 32°18' W 090°55'0 0.0
2017-Dec-03 10:30N 32°18' W 090°55'0 0.0
2017-Dec-03 10:00N 32°18' W 090°55'0 0.0
2017-Dec-03 09:30N 32°18' W 090°55'0 0.0
2017-Dec-03 09:00N 32°18' W 090°55'0 0.6
2017-Dec-03 08:30N 32°18' W 090°55'2 4.9
2017-Dec-03 08:00N 32°21' W 090°55'3 6.4
2017-Dec-03 07:30N 32°21' W 090°59'3 5.3
2017-Dec-03 07:00N 32°23' W 090°60'3 6.1
2017-Dec-03 06:30N 32°26' W 091°02'3 6.7
2017-Dec-03 06:00N 32°27' W 091°06'3 6.3
2017-Dec-03 05:30N 32°30' W 091°07'4 7.2
2017-Dec-03 05:00N 32°34' W 091°06'3 6.8
2017-Dec-03 04:30N 32°36' W 091°09'3 6.9
2017-Dec-03 04:00N 32°40' W 091°08'  
Track history (hours):
 
Tides and Currents Weather Stations Pressure Air Temp Water Temp Dewpoint Dewpoint Depression Visibility Wind Speed Wind Dir Waves Ship Positions

Cibolo

Owner: Kirby Inland Marine LP, Houston, TX. More information available from US FCC via Universal Licensing System and Coast Guard Vessel Documentation Center.

Last reported at 2017-Dec-08 21:46 UTC. Time now 2017-Dec-12 19:52 UTC.
Position N 30°03' W 093°43'.

Length 213 m; draft 3 m.

Type: . MMSI: 367728710.

Date/timePositionNaut miles runAvg speedWind from/ knotsBaromVisibWave heightAir tempDewpointWater temp
2017-Dec-08 21:46N 30°03' W 093°43'1 5.2
2017-Dec-08 21:30N 30°04' W 093°42'3 5.9
2017-Dec-08 21:00N 30°04' W 093°38'3 5.4
2017-Dec-08 20:30N 30°04' W 093°35'2 5.1
2017-Dec-08 20:00N 30°04' W 093°32'3 5.3
2017-Dec-08 19:30N 30°04' W 093°29'3 5.3
2017-Dec-08 19:00N 30°04' W 093°26'3 5.3
2017-Dec-08 18:30N 30°04' W 093°23'6 1.0
2017-Dec-08 12:30N 30°04' W 093°16'0 0.0
2017-Dec-08 10:38N 30°04' W 093°16'0 0.0
2017-Dec-08 10:30N 30°04' W 093°16'0 0.0
2017-Dec-08 10:00N 30°04' W 093°16'0 0.0
2017-Dec-08 09:30N 30°04' W 093°16'0 0.0
2017-Dec-08 09:00N 30°04' W 093°16'0 0.0
2017-Dec-08 08:30N 30°04' W 093°16'0 0.0
2017-Dec-08 08:00N 30°04' W 093°16'0 0.0
2017-Dec-08 07:30N 30°04' W 093°16'0 0.0
2017-Dec-08 07:00N 30°04' W 093°16'0 0.0
2017-Dec-08 06:30N 30°04' W 093°16'0 0.0
2017-Dec-08 06:00N 30°04' W 093°16'0 0.0
2017-Dec-08 05:30N 30°04' W 093°16'0 0.1
2017-Dec-08 05:00N 30°04' W 093°16'0 0.0
2017-Dec-08 04:30N 30°04' W 093°16'0 0.0
2017-Dec-08 04:00N 30°04' W 093°16'0 0.0
2017-Dec-08 03:30N 30°04' W 093°16'0 0.0
2017-Dec-08 03:00N 30°04' W 093°16'0 0.0
2017-Dec-08 02:30N 30°04' W 093°16'0 0.0
2017-Dec-08 02:00N 30°04' W 093°16'0 0.1
2017-Dec-08 01:30N 30°04' W 093°16'0 0.0
2017-Dec-08 01:00N 30°04' W 093°16'0 0.0
2017-Dec-08 00:30N 30°04' W 093°16'0 0.0
2017-Dec-08 00:00N 30°04' W 093°16'0 0.0
2017-Dec-07 23:30N 30°04' W 093°16'0 0.0
2017-Dec-07 23:00N 30°04' W 093°16'0 0.0
2017-Dec-07 22:30N 30°04' W 093°16'0 0.0
2017-Dec-07 22:00N 30°04' W 093°16'0 0.0
2017-Dec-07 21:30N 30°04' W 093°16'0 0.0
2017-Dec-07 21:00N 30°04' W 093°16'0 0.0
2017-Dec-07 20:30N 30°04' W 093°16'0 0.0
2017-Dec-07 20:00N 30°04' W 093°16'0 0.0
2017-Dec-07 19:30N 30°04' W 093°16'1 1.6
2017-Dec-07 19:00N 30°03' W 093°16'0 0.0
2017-Dec-07 18:30N 30°03' W 093°16'0 0.0
2017-Dec-07 18:00N 30°03' W 093°16'1 1.8
2017-Dec-07 17:30N 30°03' W 093°16'0 0.1
2017-Dec-07 17:00N 30°02' W 093°16'0 0.0
2017-Dec-07 16:30N 30°02' W 093°16'0 0.0
2017-Dec-07 16:00N 30°02' W 093°16'0 0.0
2017-Dec-07 15:30N 30°02' W 093°16'0 0.0
2017-Dec-07 15:00N 30°02' W 093°16'0 0.0
2017-Dec-07 14:30N 30°02' W 093°16'0 0.0
2017-Dec-07 14:00N 30°02' W 093°16'0 0.0
2017-Dec-07 13:30N 30°02' W 093°16'1 2.9
2017-Dec-07 13:00N 30°02' W 093°14'2 4.4
2017-Dec-07 12:30N 29°60' W 093°13'0 0.3
2017-Dec-07 12:00N 29°60' W 093°13'0 0.0
2017-Dec-07 11:30N 29°60' W 093°13'0 0.0
2017-Dec-07 11:00N 29°60' W 093°13'0 0.0
2017-Dec-07 10:30N 29°60' W 093°13'0 0.8
2017-Dec-07 10:00N 29°59' W 093°13'2 4.9
2017-Dec-07 09:30N 29°57' W 093°11'3 5.2
2017-Dec-07 09:00N 29°56' W 093°08'38 5.0
2017-Dec-07 01:31N 29°53' W 092°25'1 5.7
2017-Dec-07 01:22N 29°53' W 092°24'3 5.4
2017-Dec-07 00:52N 29°51' W 092°22'2 4.6
2017-Dec-07 00:30N 29°51' W 092°20'0 0.0
2017-Dec-07 00:00N 29°51' W 092°20'1 1.1
2017-Dec-06 23:30N 29°50' W 092°19'2 4.9
2017-Dec-06 23:00N 29°49' W 092°17'3 5.2
2017-Dec-06 22:30N 29°48' W 092°14'3 5.2
2017-Dec-06 22:00N 29°47' W 092°12'1 1.5
2017-Dec-06 21:30N 29°47' W 092°11'0 0.0
2017-Dec-06 21:00N 29°47' W 092°11'  
2017-Dec-03 15:42N 31°57' W 091°12'5 6.5
2017-Dec-03 14:55N 31°59' W 091°06'3 7.1
2017-Dec-03 14:30N 32°01' W 091°04'5 6.7
2017-Dec-03 13:45N 32°06' W 091°06'2 6.5
2017-Dec-03 13:30N 32°08' W 091°06'4 7.3
2017-Dec-03 12:58N 32°07' W 091°02'3 7.3
2017-Dec-03 12:30N 32°10' W 091°00'4 7.8
2017-Dec-03 12:00N 32°14' W 090°59'4 7.5
2017-Dec-03 11:30N 32°17' W 090°57'2 3.3
2017-Dec-03 11:00N 32°18' W 090°55'0 0.0
2017-Dec-03 10:30N 32°18' W 090°55'0 0.0
2017-Dec-03 10:00N 32°18' W 090°55'0 0.0
2017-Dec-03 09:30N 32°18' W 090°55'0 0.0
2017-Dec-03 09:00N 32°18' W 090°55'0 0.6
2017-Dec-03 08:30N 32°18' W 090°55'2 4.9
2017-Dec-03 08:00N 32°21' W 090°55'3 6.4
2017-Dec-03 07:30N 32°21' W 090°59'3 5.3
2017-Dec-03 07:00N 32°23' W 090°60'3 6.1
2017-Dec-03 06:30N 32°26' W 091°02'3 6.7
2017-Dec-03 06:00N 32°27' W 091°06'3 6.3
2017-Dec-03 05:30N 32°30' W 091°07'4 7.2
2017-Dec-03 05:00N 32°34' W 091°06'3 6.8
2017-Dec-03 04:30N 32°36' W 091°09'3 6.9
2017-Dec-03 04:00N 32°40' W 091°08'  

Dump ship's entire track history